Time;durP1;ratioP1;P1;durP2;ratioP2;P2;SDS_P1;SDS_P2;PMS_P1;PMS_P2;Temp;Humidity;BMP_temperature;BMP_pressure;BME280_temperature;BME280_humidity;BME280_pressure;Samples;Min_cycle;Max_cycle;Signal;HPM_P1;HPM_P2
2022/08/02 00:02:24;;;;;;;6.18;3.63;;;589.40;2432.00;;;;;;4977378;28;20018;-79
2022/08/02 00:04:50;;;;;;;9.73;3.88;;;;;;;;;;4994968;28;20041;-79
2022/08/02 00:07:16;;;;;;;6.25;3.30;;;589.50;2432.00;;;;;;4994911;28;20015;-78
2022/08/02 00:09:43;;;;;;;11.23;3.78;;;589.40;2432.00;;;;;;4977343;28;20039;-80
2022/08/02 00:12:09;;;;;;;8.25;3.22;;;589.40;2432.00;;;;;;4994716;28;20023;-80
2022/08/02 00:14:37;;;;;;;6.78;3.70;;;589.20;2432.00;;;;;;4995179;28;20026;-80
2022/08/02 00:17:04;;;;;;;8.15;3.60;;;589.30;2432.00;;;;;;4994702;28;20149;-81
2022/08/02 00:19:29;;;;;;;6.55;3.65;;;589.30;2432.00;;;;;;4994559;28;20061;-80
2022/08/02 00:21:55;;;;;;;7.88;3.92;;;589.40;2432.00;;;;;;4994631;28;20484;-80
2022/08/02 00:24:21;;;;;;;7.88;3.45;;;589.40;2432.00;;;;;;4977630;28;20420;-79
2022/08/02 00:26:47;;;;;;;4.97;3.20;;;589.10;2432.00;;;;;;4977417;28;20029;-78
2022/08/02 00:29:13;;;;;;;8.85;3.63;;;589.30;2432.00;;;;;;4978116;28;20033;-80
2022/08/02 00:31:38;;;;;;;9.57;3.67;;;589.30;2432.00;;;;;;4977887;28;20041;-82
2022/08/02 00:34:04;;;;;;;5.72;3.20;;;589.30;2432.00;;;;;;4994135;28;20407;-79
2022/08/02 00:36:39;;;;;;;7.75;3.33;;;589.30;2432.00;;;;;;4977830;28;20483;-80
2022/08/02 00:39:05;;;;;;;5.30;3.58;;;589.30;2432.00;;;;;;4994827;28;20050;-79
2022/08/02 00:41:31;;;;;;;6.88;3.80;;;589.30;2432.00;;;;;;4991766;28;20423;-80
2022/08/02 00:43:57;;;;;;;6.65;3.92;;;589.20;2432.00;;;;;;4976340;28;20042;-81
2022/08/02 00:46:22;;;;;;;12.55;4.18;;;589.10;2432.00;;;;;;4976841;28;20118;-79
2022/08/02 00:48:48;;;;;;;7.38;4.13;;;588.80;2432.00;;;;;;4993605;28;20018;-81
2022/08/02 00:51:15;;;;;;;8.40;3.95;;;588.90;2432.00;;;;;;4977298;28;20463;-83
2022/08/02 00:53:41;;;;;;;8.70;4.22;;;564.10;2432.00;;;;;;4976427;28;20395;-83
2022/08/02 00:56:07;;;;;;;9.80;4.53;;;564.10;2432.00;;;;;;4976941;28;20029;-79
2022/08/02 00:58:33;;;;;;;6.78;4.18;;;564.10;2432.00;;;;;;4976807;28;20038;-82
2022/08/02 01:01:00;;;;;;;10.07;4.82;;;563.70;2432.00;;;;;;4992443;28;20030;-80
2022/08/02 01:03:26;;;;;;;9.55;4.80;;;563.90;2432.00;;;;;;4976490;28;20038;-80
2022/08/02 01:05:52;;;;;;;12.35;4.35;;;563.80;2432.00;;;;;;4992648;28;20038;-80
2022/08/02 01:08:18;;;;;;;13.23;4.50;;;563.70;2432.00;;;;;;4994734;28;20093;-81
2022/08/02 01:10:44;;;;;;;13.35;4.40;;;563.70;2432.00;;;;;;4977576;28;20022;-82
2022/08/02 01:13:10;;;;;;;13.75;4.25;;;563.60;2432.00;;;;;;4976283;28;20109;-83
2022/08/02 01:15:44;;;;;;;14.50;4.93;;;563.60;2432.00;;;;;;4994413;28;20490;-80
2022/08/02 01:18:34;;;;;;;13.55;5.10;;;563.60;2432.00;;;;;;4993822;28;20022;-80
2022/08/02 01:21:29;;;;;;;14.65;4.90;;;563.70;2432.00;;;;;;4993139;28;20037;-80
2022/08/02 01:24:13;;;;;;;17.13;5.72;;;563.70;2432.00;;;;;;4993891;28;20073;-80
2022/08/02 01:26:42;;;;;;;10.93;4.30;;;563.70;2432.00;;;;;;4976142;28;20022;-79
2022/08/02 01:29:33;;;;;;;10.57;4.30;;;563.80;2432.00;;;;;;4993906;28;20113;-79
2022/08/02 01:32:24;;;;;;;16.33;4.60;;;563.80;2432.00;;;;;;4991635;28;20072;-80
2022/08/02 01:35:02;;;;;;;11.30;4.38;;;563.80;2432.00;;;;;;4993862;28;20483;-80
2022/08/02 01:37:38;;;;;;;11.45;4.90;;;563.80;2432.00;;;;;;4976534;28;20061;-80
2022/08/02 01:40:10;;;;;;;17.88;4.82;;;563.80;2432.00;;;;;;4993273;28;20049;-79
2022/08/02 01:42:40;;;;;;;10.10;4.35;;;563.90;2432.00;;;;;;4991903;28;20022;-80
2022/08/02 01:45:08;;;;;;;19.63;4.88;;;563.90;2432.00;;;;;;4975955;28;20023;-80
2022/08/02 01:47:36;;;;;;;12.80;4.72;;;563.80;2432.00;;;;;;4992025;28;20022;-81
2022/08/02 01:50:04;;;;;;;12.55;4.82;;;563.70;2432.00;;;;;;4993369;28;20022;-80
2022/08/02 01:52:34;;;;;;;10.77;4.50;;;563.60;2432.00;;;;;;4994166;28;20411;-81
2022/08/02 01:55:17;;;;;;;18.58;5.60;;;563.70;2432.00;;;;;;4994200;28;20033;-81
2022/08/02 01:57:54;;;;;;;11.07;4.80;;;563.60;2432.00;;;;;;4976638;28;20026;-80
2022/08/02 02:00:23;;;;;;;12.82;4.72;;;563.60;2432.00;;;;;;4994203;28;20092;-81
2022/08/02 02:02:51;;;;;;;11.38;4.20;;;563.70;2432.00;;;;;;4994006;28;20021;-80
2022/08/02 02:05:19;;;;;;;10.57;4.38;;;563.60;2432.00;;;;;;4976317;28;20030;-80
2022/08/02 02:07:48;;;;;;;9.82;4.30;;;563.60;2432.00;;;;;;4986402;28;20081;-81
2022/08/02 02:10:17;;;;;;;10.07;4.65;;;563.50;2432.00;;;;;;4972299;28;20053;-82
2022/08/02 02:12:47;;;;;;;11.18;4.72;;;563.60;2432.00;;;;;;4976802;28;20096;-80
2022/08/02 02:15:14;;;;;;;12.30;5.03;;;563.50;2432.00;;;;;;4975789;28;20042;-80
2022/08/02 02:17:45;;;;;;;10.35;5.18;;;563.50;2432.00;;;;;;4993622;28;20018;-81
2022/08/02 02:20:17;;;;;;;12.02;4.70;;;563.60;2432.00;;;;;;4992927;28;20046;-80
2022/08/02 02:22:43;;;;;;;12.80;5.43;;;563.60;2432.00;;;;;;4993448;28;20030;-82
2022/08/02 02:25:12;;;;;;;10.52;5.43;;;563.70;2432.00;;;;;;4975428;28;20027;-82
2022/08/02 02:27:47;;;;;;;7.55;5.25;;;563.70;2432.00;;;;;;4991508;28;20104;-82
2022/08/02 02:30:13;;;;;;;6.57;4.50;;;563.80;2432.00;;;;;;4975296;28;20033;-79
2022/08/02 02:32:41;;;;;;;10.85;5.25;;;563.60;2432.00;;;;;;4975970;28;20134;-82
2022/08/02 02:35:09;;;;;;;12.82;6.00;;;563.60;2432.00;;;;;;4975600;28;20038;-81
2022/08/02 02:37:36;;;;;;;8.05;5.28;;;563.60;2432.00;;;;;;4992607;28;20104;-80
2022/08/02 02:40:02;;;;;;;11.18;5.55;;;563.60;2432.00;;;;;;4976093;28;20443;-81
2022/08/02 02:42:31;;;;;;;12.80;5.85;;;563.60;2432.00;;;;;;4967182;28;20031;-81
2022/08/02 02:44:59;;;;;;;12.55;5.80;;;563.60;2432.00;;;;;;4976124;28;20129;-80
2022/08/02 02:47:28;;;;;;;10.43;6.15;;;563.70;2432.00;;;;;;4980229;28;20034;-80
2022/08/02 02:49:55;;;;;;;11.85;5.60;;;563.50;2432.00;;;;;;4975481;28;20048;-80
2022/08/02 02:52:21;;;;;;;8.43;5.85;;;563.50;2432.00;;;;;;4981147;28;20109;-80
2022/08/02 02:54:49;;;;;;;9.48;5.80;;;563.50;2432.00;;;;;;4976254;28;20458;-80
2022/08/02 02:57:16;;;;;;;16.85;6.10;;;563.50;2432.00;;;;;;4992147;28;20026;-78
2022/08/02 02:59:42;;;;;;;7.97;5.13;;;563.60;2432.00;;;;;;4992602;28;20058;-79
2022/08/02 03:02:10;;;;;;;17.27;6.45;;;563.60;2432.00;;;;;;4991291;28;20031;-79
2022/08/02 03:04:37;;;;;;;9.38;6.40;;;563.50;2432.00;;;;;;4975341;28;20037;-76
2022/08/02 03:07:03;;;;;;;17.25;6.10;;;563.50;2432.00;;;;;;4979308;28;20023;-81
2022/08/02 03:09:29;;;;;;;15.80;6.05;;;563.60;2432.00;;;;;;4974957;28;20027;-80
2022/08/02 03:11:55;;;;;;;9.27;5.65;;;563.60;2432.00;;;;;;4968780;28;20027;-81
2022/08/02 03:14:22;;;;;;;8.57;6.10;;;563.50;2432.00;;;;;;4976000;28;20037;-79
2022/08/02 03:16:50;;;;;;;8.35;5.60;;;563.50;2432.00;;;;;;4993426;28;20186;-79
2022/08/02 03:19:17;;;;;;;12.00;6.22;;;563.60;2432.00;;;;;;4975433;28;20030;-79
2022/08/02 03:21:43;;;;;;;9.57;5.63;;;563.60;2432.00;;;;;;4975949;28;20030;-81
2022/08/02 03:24:09;;;;;;;13.50;5.40;;;563.60;2432.00;;;;;;4973951;28;20072;-78
2022/08/02 03:26:35;;;;;;;11.55;6.78;;;563.60;2432.00;;;;;;4975893;28;20022;-78
2022/08/02 03:29:02;;;;;;;14.18;6.75;;;563.60;2432.00;;;;;;4986179;28;20057;-78
2022/08/02 03:31:28;;;;;;;7.60;6.15;;;563.40;2432.00;;;;;;4990761;28;20022;-79
2022/08/02 03:33:59;;;;;;;12.05;6.63;;;563.40;2432.00;;;;;;4980522;28;20081;-78
2022/08/02 03:36:29;;;;;;;11.38;6.93;;;563.30;2432.00;;;;;;5001007;28;20053;-78
2022/08/02 03:38:56;;;;;;;10.55;6.43;;;563.30;2432.00;;;;;;4982681;28;20045;-79
2022/08/02 03:41:23;;;;;;;13.05;6.43;;;538.40;2406.40;;;;;;4986441;28;20526;-77
2022/08/02 03:43:50;;;;;;;9.00;6.32;;;563.20;2432.00;;;;;;4962722;28;20435;-76
2022/08/02 03:46:19;;;;;;;10.35;6.00;;;538.50;2406.40;;;;;;4982737;28;20353;-78
2022/08/02 03:48:49;;;;;;;10.43;6.65;;;563.20;2432.00;;;;;;4995196;28;20041;-77
2022/08/02 03:51:15;;;;;;;11.52;6.80;;;563.20;2432.00;;;;;;4964884;28;20023;-78
2022/08/02 03:53:42;;;;;;;11.35;6.10;;;563.20;2432.00;;;;;;4995082;28;20073;-81
2022/08/02 03:56:09;;;;;;;13.15;7.20;;;538.50;2406.40;;;;;;4996403;28;20097;-77
2022/08/02 03:58:34;;;;;;;9.93;5.80;;;563.20;2432.00;;;;;;4996055;28;20030;-78
2022/08/02 04:01:00;;;;;;;12.93;6.95;;;538.50;2406.40;;;;;;4989345;28;20089;-78
2022/08/02 04:03:26;;;;;;;19.13;5.97;;;538.50;2406.40;;;;;;4987152;28;20464;-79
2022/08/02 04:05:53;;;;;;;8.38;5.47;;;538.50;2406.40;;;;;;4994973;28;20607;-79
2022/08/02 04:08:18;;;;;;;12.35;7.00;;;538.50;2406.40;;;;;;4987549;28;20039;-78
2022/08/02 04:13:35;;;;;;;11.48;6.50;;;538.50;2406.40;;;;;;4995900;28;20041;-79
2022/08/02 04:16:17;;;;;;;12.88;5.97;;;563.30;2432.00;;;;;;4980764;28;20200;-82
2022/08/02 04:18:50;;;;;;;13.57;7.32;;;563.40;2432.00;;;;;;4977115;28;20034;-77
2022/08/02 04:21:18;;;;;;;15.27;7.55;;;563.40;2432.00;;;;;;4995233;28;20026;-77
2022/08/02 04:23:46;;;;;;;11.23;6.82;;;563.40;2432.00;;;;;;4995441;28;20025;-77
2022/08/02 04:26:12;;;;;;;12.60;6.97;;;563.50;2432.00;;;;;;4991942;28;20033;-79
2022/08/02 04:28:40;;;;;;;13.70;6.55;;;563.60;2432.00;;;;;;4978913;28;20484;-76
2022/08/02 04:31:06;;;;;;;12.55;6.85;;;563.60;2432.00;;;;;;4983123;28;20104;-78
2022/08/02 04:33:33;;;;;;;12.70;8.10;;;563.60;2432.00;;;;;;4964290;28;20579;-78
2022/08/02 04:35:59;;;;;;;13.80;6.80;;;563.70;2432.00;;;;;;4980281;28;20077;-79
2022/08/02 04:38:25;;;;;;;12.30;7.60;;;563.70;2432.00;;;;;;4977866;28;20464;-79
2022/08/02 04:40:54;;;;;;;14.77;7.43;;;563.80;2432.00;;;;;;4981711;28;20057;-78
2022/08/02 04:43:21;;;;;;;11.07;7.15;;;563.70;2432.00;;;;;;4978629;28;20390;-78
2022/08/02 04:45:52;;;;;;;13.63;7.90;;;563.80;2432.00;;;;;;4985908;28;20027;-78
2022/08/02 04:48:18;;;;;;;16.55;7.35;;;563.80;2432.00;;;;;;4980609;28;20014;-77
2022/08/02 04:50:44;;;;;;;14.68;8.10;;;563.90;2432.00;;;;;;4980465;28;20019;-79
2022/08/02 04:53:09;;;;;;;12.77;7.60;;;564.00;2432.00;;;;;;4982507;28;20026;-79
2022/08/02 04:55:35;;;;;;;9.05;7.50;;;564.10;2432.00;;;;;;4980494;28;20031;-78
2022/08/02 04:58:01;;;;;;;12.52;7.50;;;564.10;2432.00;;;;;;4984341;28;20026;-79
2022/08/02 05:00:28;;;;;;;9.77;7.15;;;588.80;2432.00;;;;;;4960892;28;20035;-78
2022/08/02 05:02:55;;;;;;;12.43;7.25;;;588.90;2432.00;;;;;;4983462;28;20019;-79
2022/08/02 05:05:21;;;;;;;9.60;7.43;;;589.00;2432.00;;;;;;4988837;28;20065;-77
2022/08/02 05:07:47;;;;;;;11.00;8.05;;;589.00;2432.00;;;;;;4982910;28;20087;-78
2022/08/02 05:10:13;;;;;;;14.02;7.68;;;589.10;2432.00;;;;;;4965910;28;20039;-78
2022/08/02 05:12:40;;;;;;;11.32;7.18;;;589.10;2432.00;;;;;;4980836;28;20031;-79
2022/08/02 05:15:07;;;;;;;12.93;7.13;;;588.90;2432.00;;;;;;4972813;28;20563;-78
2022/08/02 05:17:33;;;;;;;7.93;6.30;;;589.30;2432.00;;;;;;4980704;28;20443;-77
2022/08/02 05:19:59;;;;;;;11.73;6.40;;;589.40;2432.00;;;;;;4966695;28;20125;-79
2022/08/02 05:22:24;;;;;;;9.80;5.90;;;589.50;2432.00;;;;;;4978592;28;20026;-80
2022/08/02 05:24:50;;;;;;;9.07;6.57;;;589.60;2432.00;;;;;;4979938;28;20038;-80
2022/08/02 05:27:16;;;;;;;10.88;5.97;;;589.60;2432.00;;;;;;4978065;28;20019;-79
2022/08/02 05:29:42;;;;;;;6.63;5.45;;;589.70;2432.00;;;;;;4966940;28;20033;-78
2022/08/02 05:32:07;;;;;;;8.18;5.88;;;589.70;2432.00;;;;;;4984498;28;20415;-79
2022/08/02 05:34:33;;;;;;;9.80;5.45;;;589.70;2432.00;;;;;;4976142;28;20085;-77
2022/08/02 05:36:59;;;;;;;8.70;6.13;;;614.40;2355.20;;;;;;4980320;28;20033;-79
2022/08/02 05:39:24;;;;;;;9.60;4.90;;;614.50;2380.80;;;;;;4969873;28;20049;-80
2022/08/02 05:41:50;;;;;;;9.02;5.15;;;614.60;2355.20;;;;;;4994030;28;20064;-80
2022/08/02 05:44:16;;;;;;;12.77;4.65;;;614.60;2201.60;;;;;;4976704;28;20071;-77
2022/08/02 05:46:42;;;;;;;7.78;4.30;;;614.70;2201.60;;;;;;4993894;28;20026;-80
2022/08/02 05:49:07;;;;;;;8.27;4.40;;;614.80;2227.20;;;;;;4976256;28;20487;-77
2022/08/02 05:51:37;;;;;;;7.03;5.30;;;614.80;2150.40;;;;;;4993757;28;20026;-78
2022/08/02 05:54:06;;;;;;;9.23;4.78;;;614.90;2150.40;;;;;;4993903;28;20018;-77
2022/08/02 05:56:37;;;;;;;8.50;4.72;;;614.90;2150.40;;;;;;4994099;28;20541;-79
2022/08/02 05:59:09;;;;;;;11.32;4.07;;;615.00;2124.80;;;;;;4993898;28;20034;-79
2022/08/02 06:01:38;;;;;;;5.20;3.55;;;615.10;2150.40;;;;;;4993956;28;20165;-76
2022/08/02 06:04:07;;;;;;;15.25;4.40;;;615.20;2099.20;;;;;;4976586;28;20030;-79
2022/08/02 06:06:34;;;;;;;6.07;3.63;;;615.20;2124.80;;;;;;4976504;28;20026;-80
2022/08/02 06:09:08;;;;;;;6.68;3.58;;;640.00;2073.60;;;;;;4993808;28;20022;-79
2022/08/02 06:11:45;;;;;;;9.48;3.65;;;640.10;2022.40;;;;;;4976444;28;20048;-83
2022/08/02 06:14:12;;;;;;;5.18;3.22;;;640.20;1971.20;;;;;;4992714;28;20046;-81
2022/08/02 06:16:38;;;;;;;5.47;3.13;;;640.30;1945.60;;;;;;4976738;28;20023;-81
2022/08/02 06:19:05;;;;;;;5.55;3.38;;;640.40;1945.60;;;;;;4976267;28;20389;-84
2022/08/02 06:21:31;;;;;;;6.95;3.40;;;640.50;1894.40;;;;;;4976830;28;20040;-82
2022/08/02 06:23:58;;;;;;;9.18;3.47;;;640.60;1920.00;;;;;;4976633;28;20028;-80
2022/08/02 06:26:25;;;;;;;4.32;2.92;;;665.90;1920.00;;;;;;4992391;28;20061;-82
2022/08/02 06:28:52;;;;;;;4.82;3.10;;;640.80;1868.80;;;;;;4976430;28;20022;-79
2022/08/02 06:31:18;;;;;;;4.93;2.88;;;640.90;1868.80;;;;;;4976045;28;20057;-79
2022/08/02 06:33:44;;;;;;;3.90;2.38;;;665.60;1894.40;;;;;;4993654;28;20053;-80
2022/08/02 06:36:13;;;;;;;4.22;2.35;;;665.70;1868.80;;;;;;4978958;28;20030;-79
2022/08/02 06:38:41;;;;;;;5.82;2.70;;;665.90;1868.80;;;;;;4993623;28;20476;-81
2022/08/02 06:41:11;;;;;;;3.25;2.30;;;666.00;1843.20;;;;;;4975952;28;20073;-83
2022/08/02 06:43:42;;;;;;;4.15;2.67;;;666.10;1843.20;;;;;;4976318;28;20373;-81
2022/08/02 06:46:08;;;;;;;3.92;2.20;;;666.20;1817.60;;;;;;4975967;28;20041;-80
2022/08/02 06:48:35;;;;;;;5.85;2.50;;;666.30;1792.00;;;;;;4976139;28;20100;-80
2022/08/02 06:51:04;;;;;;;4.55;2.38;;;666.40;1792.00;;;;;;4993553;28;20042;-79
2022/08/02 06:53:30;;;;;;;3.47;2.53;;;666.50;1740.80;;;;;;4992426;28;20030;-78
2022/08/02 06:55:57;;;;;;;6.10;2.47;;;691.20;1766.40;;;;;;4975989;28;20492;-77
2022/08/02 06:58:23;;;;;;;4.40;2.50;;;691.30;1715.20;;;;;;4993370;28;20019;-77
2022/08/02 07:00:49;;;;;;;3.72;2.13;;;691.40;1715.20;;;;;;4993357;28;20034;-77
2022/08/02 07:03:15;;;;;;;3.67;2.15;;;691.40;1638.40;;;;;;4993367;28;20396;-78
2022/08/02 07:05:41;;;;;;;4.43;2.67;;;691.60;1638.40;;;;;;4979804;28;20038;-76
2022/08/02 07:08:06;;;;;;;8.15;2.20;;;691.70;1612.80;;;;;;4979390;28;20395;-76
2022/08/02 07:10:33;;;;;;;4.38;2.20;;;691.80;1587.20;;;;;;4979595;28;20038;-78
2022/08/02 07:12:59;;;;;;;3.03;2.10;;;691.80;1587.20;;;;;;4997002;28;20018;-78
2022/08/02 07:15:25;;;;;;;2.40;1.75;;;691.90;1561.60;;;;;;4996683;28;20395;-79
2022/08/02 07:17:51;;;;;;;4.25;2.10;;;692.10;1510.40;;;;;;4997011;28;20097;-76
2022/08/02 07:20:17;;;;;;;3.47;1.98;;;716.80;1510.40;;;;;;4996809;28;20034;-78
2022/08/02 07:22:43;;;;;;;6.90;2.58;;;716.90;1510.40;;;;;;4997027;28;20538;-78
2022/08/02 07:25:09;;;;;;;5.00;2.00;;;716.90;1510.40;;;;;;4996669;28;20056;-81
2022/08/02 07:27:35;;;;;;;5.57;2.03;;;717.00;1510.40;;;;;;4979363;28;20069;-80
2022/08/02 07:30:01;;;;;;;4.00;2.25;;;717.10;1484.80;;;;;;4979400;28;20029;-81
2022/08/02 07:32:30;;;;;;;4.47;2.33;;;717.30;1484.80;;;;;;4996590;28;20435;-80
2022/08/02 07:34:57;;;;;;;6.88;2.20;;;717.30;1433.60;;;;;;4989090;28;20033;-81
2022/08/02 07:37:25;;;;;;;12.15;2.08;;;717.40;1433.60;;;;;;5000293;28;20026;-79
2022/08/02 07:39:51;;;;;;;3.45;1.70;;;717.50;1433.60;;;;;;4978888;28;20031;-80
2022/08/02 07:42:17;;;;;;;5.72;2.03;;;717.50;1356.80;;;;;;4978999;28;20026;-79
2022/08/02 07:44:42;;;;;;;3.42;2.00;;;717.50;1356.80;;;;;;4996637;28;20081;-80
2022/08/02 07:47:08;;;;;;;6.13;1.75;;;717.70;1382.40;;;;;;4996590;28;20028;-80
2022/08/02 07:49:34;;;;;;;6.55;2.03;;;742.40;1382.40;;;;;;4978914;28;20022;-78
2022/08/02 07:52:00;;;;;;;10.70;2.28;;;742.40;1382.40;;;;;;4996402;28;20030;-81
2022/08/02 07:54:25;;;;;;;6.60;2.15;;;742.50;1382.40;;;;;;4978957;28;20031;-81
2022/08/02 07:56:53;;;;;;;5.47;2.00;;;742.70;1408.00;;;;;;4996491;28;20022;-81
2022/08/02 07:59:19;;;;;;;6.85;1.90;;;742.60;1382.40;;;;;;4994872;28;20049;-81
2022/08/02 08:01:45;;;;;;;4.45;2.35;;;742.70;1382.40;;;;;;4995515;28;20061;-80
2022/08/02 08:04:11;;;;;;;2.97;1.77;;;742.80;1408.00;;;;;;4996361;28;20369;-82
2022/08/02 08:06:37;;;;;;;5.00;2.03;;;742.80;1356.80;;;;;;4978832;28;20076;-82
2022/08/02 08:09:03;;;;;;;3.22;2.17;;;742.90;1382.40;;;;;;4995936;28;20031;-80
2022/08/02 08:11:28;;;;;;;4.68;2.28;;;742.90;1356.80;;;;;;4995904;28;20030;-80
2022/08/02 08:13:54;;;;;;;4.80;2.22;;;742.90;1331.20;;;;;;4978320;28;20037;-81
2022/08/02 08:16:20;;;;;;;4.00;1.95;;;742.90;1382.40;;;;;;4994154;28;20065;-80
2022/08/02 08:18:46;;;;;;;7.05;2.20;;;742.90;1356.80;;;;;;4978531;28;20038;-80
2022/08/02 08:21:11;;;;;;;5.55;2.35;;;742.90;1356.80;;;;;;4978501;28;20045;-81
2022/08/02 08:23:37;;;;;;;4.72;2.03;;;743.00;1356.80;;;;;;4978428;28;20022;-81
2022/08/02 08:26:04;;;;;;;5.28;1.92;;;743.10;1331.20;;;;;;4978341;28;20380;-80
2022/08/02 08:28:29;;;;;;;2.92;2.15;;;743.10;1356.80;;;;;;4978096;28;20030;-80
2022/08/02 08:30:55;;;;;;;5.13;2.17;;;743.10;1356.80;;;;;;4978131;28;20026;-80
2022/08/02 08:33:21;;;;;;;4.72;1.98;;;743.20;1305.60;;;;;;4977929;28;20082;-81
2022/08/02 08:35:47;;;;;;;4.63;2.22;;;743.30;1305.60;;;;;;4978129;28;20034;-81
2022/08/02 08:38:14;;;;;;;6.10;2.55;;;768.00;1331.20;;;;;;4995470;28;20037;-80
2022/08/02 08:40:41;;;;;;;2.97;2.00;;;768.10;1305.60;;;;;;4977769;28;20496;-81
2022/08/02 08:43:07;;;;;;;3.33;2.50;;;768.10;1305.60;;;;;;4978033;28;20045;-81
2022/08/02 08:45:32;;;;;;;4.55;2.47;;;768.10;1280.00;;;;;;4995489;28;20069;-80
2022/08/02 08:48:11;;;;;;;6.35;3.28;;;768.10;1280.00;;;;;;4994631;28;20019;-81
2022/08/02 08:50:41;;;;;;;4.45;2.58;;;768.10;1254.40;;;;;;4971706;28;20444;-81
2022/08/02 08:53:07;;;;;;;9.90;6.25;;;768.10;1228.80;;;;;;4970428;28;20113;-81
2022/08/02 08:55:36;;;;;;;4.03;2.83;;;768.30;1254.40;;;;;;4995435;28;20018;-82
2022/08/02 08:58:03;;;;;;;3.58;2.45;;;768.30;1228.80;;;;;;4977793;28;20065;-81
2022/08/02 09:00:32;;;;;;;3.97;2.42;;;768.50;1254.40;;;;;;4975277;28;20038;-81
2022/08/02 09:03:00;;;;;;;5.95;2.30;;;768.50;1228.80;;;;;;4980982;28;20480;-81
2022/08/02 09:05:26;;;;;;;6.80;2.13;;;768.60;1254.40;;;;;;4967957;28;20031;-81
2022/08/02 09:07:52;;;;;;;3.60;2.22;;;768.50;1254.40;;;;;;4972393;28;20030;-79
2022/08/02 09:10:42;;;;;;;5.43;2.30;;;768.50;1228.80;;;;;;4980123;28;20120;-80
2022/08/02 09:13:29;;;;;;;2.90;2.10;;;768.60;1228.80;;;;;;4977706;28;20011;-83
2022/08/02 09:16:00;;;;;;;4.75;2.20;;;768.70;1228.80;;;;;;4980534;28;20050;-83
2022/08/02 09:18:36;;;;;;;7.15;3.17;;;768.70;1254.40;;;;;;4980979;28;20025;-81
2022/08/02 09:21:12;;;;;;;3.63;2.33;;;768.90;1254.40;;;;;;4979420;28;20061;-77
2022/08/02 09:23:45;;;;;;;2.55;1.95;;;768.90;1228.80;;;;;;4994709;28;20045;-81
2022/08/02 09:26:16;;;;;;;5.40;2.30;;;793.60;1254.40;;;;;;4973369;28;20121;-82
2022/08/02 09:28:44;;;;;;;9.80;7.18;;;793.70;1254.40;;;;;;4995060;28;20034;-83
2022/08/02 09:31:19;;;;;;;6.22;3.45;;;793.80;1254.40;;;;;;4994441;28;20019;-80
2022/08/02 09:33:54;;;;;;;4.97;2.80;;;793.90;1254.40;;;;;;4980386;28;20045;-81
2022/08/02 09:36:21;;;;;;;4.60;2.90;;;794.00;1228.80;;;;;;4993400;28;20113;-80
2022/08/02 09:39:02;;;;;;;5.72;2.40;;;794.20;1228.80;;;;;;4994947;28;20053;-84
2022/08/02 09:41:31;;;;;;;6.07;2.65;;;794.20;1228.80;;;;;;4977072;28;20046;-81
2022/08/02 09:44:00;;;;;;;6.13;2.40;;;794.30;1228.80;;;;;;4972727;28;20469;-83
2022/08/02 09:46:29;;;;;;;3.63;2.65;;;794.50;1228.80;;;;;;4981833;28;20053;-83
2022/08/02 09:49:02;;;;;;;6.45;2.67;;;819.20;1203.20;;;;;;4970618;28;20018;-84
2022/08/02 09:51:38;;;;;;;4.07;2.78;;;819.30;1203.20;;;;;;4973127;28;20058;-85
2022/08/02 09:54:10;;;;;;;5.25;2.60;;;819.40;1203.20;;;;;;4977091;28;20097;-82
2022/08/02 09:56:46;;;;;;;3.90;2.65;;;819.50;1177.60;;;;;;4976913;28;20026;-89
2022/08/02 09:59:13;;;;;;;4.93;2.45;;;819.60;1177.60;;;;;;4982965;28;20062;-77
2022/08/02 10:01:39;;;;;;;5.28;2.67;;;819.80;1177.60;;;;;;4978782;28;20090;-79
2022/08/02 10:04:13;;;;;;;2.95;2.15;;;819.90;1177.60;;;;;;4977744;28;20027;-77
2022/08/02 10:06:40;;;;;;;5.72;3.00;;;820.10;1177.60;;;;;;4975994;28;20026;-75
2022/08/02 10:09:07;;;;;;;3.60;2.33;;;844.90;1177.60;;;;;;4984062;28;20026;-73
2022/08/02 10:11:34;;;;;;;6.20;2.05;;;845.00;1152.00;;;;;;4997897;28;20018;-76
2022/08/02 10:14:01;;;;;;;6.93;2.20;;;845.00;1177.60;;;;;;5002840;28;20053;-75
2022/08/02 10:16:27;;;;;;;3.90;2.60;;;845.10;1152.00;;;;;;5002305;28;20018;-77
2022/08/02 10:18:54;;;;;;;5.93;3.05;;;845.30;1152.00;;;;;;5002013;28;20084;-76
2022/08/02 10:21:43;;;;;;;6.13;2.65;;;845.40;1152.00;;;;;;5003894;28;20022;-76
2022/08/02 10:24:11;;;;;;;5.25;2.78;;;845.50;1126.40;;;;;;5003931;28;20105;-78
2022/08/02 10:26:43;;;;;;;3.88;2.30;;;845.60;1126.40;;;;;;5002273;28;20011;-80
2022/08/02 10:29:14;;;;;;;4.68;2.40;;;870.40;1126.40;;;;;;5002693;28;20097;-80
2022/08/02 10:31:50;;;;;;;5.43;3.08;;;870.50;1100.80;;;;;;4975822;28;20035;-81
2022/08/02 10:34:20;;;;;;;7.70;2.90;;;870.50;1100.80;;;;;;4976250;28;20027;-81
2022/08/02 10:36:48;;;;;;;6.50;2.30;;;845.30;1126.40;;;;;;4978550;28;20081;-76
2022/08/02 10:39:14;;;;;;;14.68;3.33;;;844.90;1152.00;;;;;;4988763;28;20089;-77
2022/08/02 10:41:47;;;;;;;9.43;3.55;;;845.10;1177.60;;;;;;4991423;28;20504;-75
2022/08/02 10:44:32;;;;;;;5.35;2.50;;;845.60;1126.40;;;;;;4981028;28;20382;-76
2022/08/02 10:47:13;;;;;;;4.80;2.50;;;870.50;1100.80;;;;;;4987101;28;20022;-81
2022/08/02 10:49:59;;;;;;;5.72;2.55;;;845.60;1126.40;;;;;;4982427;28;20027;-80
2022/08/02 10:52:28;;;;;;;;;;;845.30;1126.40;;;;;;4982598;28;20030;-76
2022/08/02 10:55:10;;;;;;;6.55;2.72;;;845.40;1126.40;;;;;;4987671;28;19976;-76
2022/08/02 10:57:36;;;;;;;3.85;2.67;;;870.50;1126.40;;;;;;4988520;28;20420;-82
2022/08/02 11:00:08;;;;;;;4.88;2.30;;;870.90;1100.80;;;;;;4996911;28;20117;-82
2022/08/02 11:02:42;;;;;;;3.42;2.47;;;870.90;1075.20;;;;;;4979687;28;20033;-81
2022/08/02 11:05:31;;;;;;;5.68;2.25;;;870.90;1100.80;;;;;;4979792;28;20459;-83
2022/08/02 11:07:57;;;;;;;5.07;2.10;;;870.50;1100.80;;;;;;4997485;28;20052;-82
2022/08/02 11:10:29;;;;;;;5.90;2.30;;;845.40;1126.40;;;;;;4974023;28;20018;-81
2022/08/02 11:13:00;;;;;;;3.40;2.33;;;844.90;1152.00;;;;;;4969294;28;20049;-81
2022/08/02 11:15:26;;;;;;;4.35;2.20;;;845.30;1152.00;;;;;;4986151;28;20030;-80
2022/08/02 11:18:01;;;;;;;5.38;2.50;;;845.70;1126.40;;;;;;4988243;28;20057;-81
2022/08/02 11:20:27;;;;;;;3.25;2.25;;;870.60;1100.80;;;;;;4975046;28;20038;-83
2022/08/02 11:22:55;;;;;;;2.97;2.20;;;870.90;1075.20;;;;;;4970818;28;20077;-83
2022/08/02 11:25:23;;;;;;;4.38;2.30;;;871.00;1075.20;;;;;;4969376;28;20161;-89
2022/08/02 11:28:06;;;;;;;6.80;2.30;;;871.30;1049.60;;;;;;4975438;28;20038;-84
2022/08/02 11:30:32;;;;;;;3.22;2.20;;;870.90;1075.20;;;;;;4977763;28;20070;-82
2022/08/02 11:32:59;;;;;;;3.70;2.55;;;870.40;1100.80;;;;;;4973620;28;20464;-84
2022/08/02 11:35:38;;;;;;;4.70;3.03;;;870.50;1100.80;;;;;;5007120;28;20084;-81
2022/08/02 11:38:16;;;;;;;5.60;2.72;;;871.30;1075.20;;;;;;4979113;28;20023;-83
2022/08/02 11:40:43;;;;;;;3.78;2.33;;;871.10;1049.60;;;;;;4976958;28;20050;-82
2022/08/02 11:43:23;;;;;;;10.90;2.50;;;871.10;1024.00;;;;;;4990855;28;20161;-80
2022/08/02 11:45:51;;;;;;;5.35;2.60;;;871.30;1024.00;;;;;;4988109;28;20030;-82
2022/08/02 11:48:36;;;;;;;3.17;2.30;;;871.00;1024.00;;;;;;4992625;28;20034;-81
2022/08/02 11:51:14;;;;;;;4.22;2.47;;;870.50;1075.20;;;;;;4986986;28;20031;-84
2022/08/02 11:53:46;;;;;;;3.70;2.35;;;870.40;1100.80;;;;;;4978817;28;20034;-83
2022/08/02 11:56:12;;;;;;;7.80;2.30;;;845.60;1100.80;;;;;;4988176;28;20022;-84
2022/08/02 11:58:38;;;;;;;6.50;2.80;;;845.60;1100.80;;;;;;5006740;28;20018;-85
2022/08/02 12:01:05;;;;;;;4.32;2.70;;;845.60;1100.80;;;;;;4986839;28;20099;-85
2022/08/02 12:03:38;;;;;;;3.33;2.42;;;870.50;1100.80;;;;;;4989120;28;20488;-85
2022/08/02 12:06:05;;;;;;;4.97;2.70;;;870.90;1075.20;;;;;;4988123;28;20034;-82
2022/08/02 12:08:32;;;;;;;4.90;2.80;;;871.00;1049.60;;;;;;5005282;28;20022;-84
2022/08/02 12:11:01;;;;;;;3.70;2.58;;;871.30;1024.00;;;;;;4993240;28;20124;-85
2022/08/02 12:13:27;;;;;;;3.20;2.25;;;870.70;1049.60;;;;;;4988497;28;20034;-86
2022/08/02 12:15:52;;;;;;;5.40;2.40;;;871.00;1049.60;;;;;;4971885;28;20026;-81
2022/08/02 12:21:26;;;;;;;4.00;2.33;;;896.00;1024.00;;;;;;5000261;28;20045;-79
2022/08/02 12:23:52;;;;;;;7.82;2.53;;;896.10;1024.00;;;;;;5004450;28;20030;-79
2022/08/02 12:26:18;;;;;;;4.07;2.30;;;896.50;1024.00;;;;;;5004607;28;20420;-83
2022/08/02 12:28:44;;;;;;;4.43;2.78;;;896.30;1024.00;;;;;;5006748;28;20080;-79
2022/08/02 12:31:14;;;;;;;4.25;2.25;;;896.70;1024.00;;;;;;5010718;28;20033;-83